CheckWX is a tool to help pilots better visualize weather data.  It is not intended as a substitute for an official pre-flight weather briefing.

14:39:38 UTC

KOTM METAR
Ottumwa Regional Airport
Ottumwa, Iowa, USA
Current

47 mins ago

KOTM 221353Z AUTO 19015KT 10SM CLR 19/13 A2989 RMK AO2 WSHFT 1259 SLP115 T01940128
Observed
Apr-22 @ 13:53 UTC
Wind
  • 190° at 15 KTS
Visibility
10 SM
Flight Rules
VFR
Cloud Levels
  • Clear skies
Temperature
19°C / 66°F
Dewpoint
13°C / 55°F
Humidity
68%
Altimeter
29.89" Hg
Pressure
1012.22 hPa
Previous

1 hour ago

KOTM 221319Z AUTO 18011KT 10SM CLR 17/12 A2986 RMK AO2 WSHFT 1259 T01720122
Observed
Apr-22 @ 13:19 UTC
Wind
  • 180° at 11 KTS
Visibility
10 SM
Flight Rules
VFR
Cloud Levels
  • Clear skies
Temperature
17°C / 63°F
Dewpoint
12°C / 54°F
Humidity
73%
Altimeter
29.86" Hg
Pressure
1011.22 hPa
Previous

2 hours ago

KOTM 221253Z AUTO 12008KT 10SM FEW047 SCT080 BKN100 17/12 A2983 RMK AO2 RAB28E49 PRESFR SLP096 P0002 T01720117
Observed
Apr-22 @ 12:53 UTC
Wind
  • 120° at 8 KTS
Visibility
10 SM
Flight Rules
VFR
Cloud Levels
  • Few at 4,700' AGL
  • Scattered at 8,000' AGL
  • Broken at 10,000' AGL
Temperature
17°C / 63°F
Dewpoint
12°C / 54°F
Humidity
73%
Altimeter
29.83" Hg
Pressure
1010.12 hPa
Current Rain
0.02"